Time;durP1;ratioP1;P1;durP2;ratioP2;P2;SDS_P1;SDS_P2;PMS_P1;PMS_P2;Temp;Humidity;BMP_temperature;BMP_pressure;BME280_temperature;BME280_humidity;BME280_pressure;Samples;Min_cycle;Max_cycle;Signal;HPM_P1;HPM_P2
2022/10/25 00:01:23;;;;;;;;;;;;;;;14.51;66.98;95645.50;5073399;28;20115;-67
2022/10/25 00:03:48;;;;;;;;;;;;;;;14.47;66.98;95643.72;5055595;28;20055;-68
2022/10/25 00:06:14;;;;;;;;;;;;;;;14.41;67.43;95647.69;5072463;28;20049;-68
2022/10/25 00:08:39;;;;;;;;;;;;;;;14.39;67.11;95636.50;5055312;28;20499;-67
2022/10/25 00:11:05;;;;;;;;;;;;;;;14.34;67.33;95640.13;5073060;28;20018;-67
2022/10/25 00:13:31;;;;;;;;;;;;;;;14.29;67.74;95642.97;5055387;28;20013;-67
2022/10/25 00:15:56;;;;;;;;;;;;;;;14.25;67.45;95637.44;5055034;28;20009;-67
2022/10/25 00:18:21;;;;;;;;;;;;;;;14.22;67.39;95642.63;5073394;28;20016;-67
2022/10/25 00:20:46;;;;;;;;;;;;;;;14.15;67.69;95640.44;5072414;28;20484;-67
2022/10/25 00:23:12;;;;;;;;;;;;;;;14.13;67.65;95623.91;5073195;28;20063;-67
2022/10/25 00:25:37;;;;;;;;;;;;;;;14.09;68.11;95635.56;5072623;28;20058;-67
2022/10/25 00:28:03;;;;;;;;;;;;;;;14.05;68.14;95630.03;5073198;28;20492;-67
2022/10/25 00:30:28;;;;;;;;;;;;;;;14.01;67.91;95632.53;5054928;28;20021;-67
2022/10/25 00:32:53;;;;;;;;;;;;;;;14.00;67.86;95628.28;5071189;28;20013;-67
2022/10/25 00:35:18;;;;;;;;;;;;;;;13.97;68.14;95622.78;5054250;28;20540;-67
2022/10/25 00:37:44;;;;;;;;;;;;;;;13.93;68.36;95635.22;5055083;28;20020;-67
2022/10/25 00:40:09;;;;;;;;;;;;;;;13.91;68.03;95632.84;5072653;28;20056;-67
2022/10/25 00:42:34;;;;;;;;;;;;;;;13.88;68.56;95633.47;5054154;28;20108;-67
2022/10/25 00:45:00;;;;;;;;;;;;;;;13.85;68.01;95638.66;5070388;28;20112;-67
2022/10/25 00:47:26;;;;;;;;;;;;;;;13.83;68.36;95630.97;5054800;28;20060;-67
2022/10/25 00:49:57;;;;;;;;;;;;;;;13.80;67.90;95636.91;5054951;28;20049;-68
2022/10/25 00:52:22;;;;;;;;;;;;;;;13.79;68.09;95640.69;5055133;28;20043;-67
2022/10/25 00:54:49;;;;;;;;;;;;;;;13.75;68.13;95637.06;5053115;28;20017;-68
2022/10/25 00:57:18;;;;;;;;;;;;;;;13.74;68.34;95628.25;5071229;28;20245;-67
2022/10/25 01:02:18;;;;;;;;;;;;;;;13.75;68.43;95629.81;4948948;28;20070;-75
2022/10/25 01:04:44;;;;;;;;;;;;;;;13.76;68.69;95628.72;4951486;28;20044;-75
2022/10/25 01:07:09;;;;;;;;;;;;;;;13.81;68.69;95625.13;4973364;28;20115;-74
2022/10/25 01:09:36;;;;;;;;;;;;;;;13.85;68.37;95618.06;5039219;28;20018;-76
2022/10/25 01:12:01;;;;;;;;;;;;;;;13.87;68.12;95617.72;5052753;28;20104;-75
2022/10/25 01:14:27;;;;;;;;;;;;;;;13.86;67.82;95619.63;5052770;28;20100;-75
2022/10/25 01:17:04;;;;;;;;;;;;;;;13.83;67.80;95614.91;5051316;28;20021;-75
2022/10/25 01:19:48;;;;;;;;;;;;;;;13.77;67.75;95614.28;5063856;28;20013;-74
2022/10/25 01:22:13;;;;;;;;;;;;;;;13.74;67.45;95619.47;5052633;28;20013;-75
2022/10/25 01:24:57;;;;;;;;;;;;;;;13.68;67.57;95612.69;5051174;28;20067;-75
2022/10/25 01:27:25;;;;;;;;;;;;;;;13.66;67.65;95622.88;5004547;28;20023;-75
2022/10/25 01:29:50;;;;;;;;;;;;;;;13.62;67.89;95614.72;4951364;29;20018;-76
2022/10/25 01:32:34;;;;;;;;;;;;;;;13.59;67.63;95603.84;4950088;29;20019;-75
2022/10/25 01:35:15;;;;;;;;;;;;;;;13.56;67.81;95613.25;4949629;28;20081;-75
2022/10/25 01:37:44;;;;;;;;;;;;;;;13.51;67.98;95603.53;4994910;28;20013;-76
2022/10/25 01:40:21;;;;;;;;;;;;;;;13.43;68.10;95608.84;5050981;28;20014;-77
2022/10/25 01:43:06;;;;;;;;;;;;;;;13.47;68.67;95599.13;5050803;28;20017;-76
2022/10/25 01:45:44;;;;;;;;;;;;;;;13.52;68.62;95601.66;5048049;28;20024;-76
2022/10/25 01:48:14;;;;;;;;;;;;;;;13.64;68.99;95601.81;5050990;28;20097;-76
2022/10/25 01:50:40;;;;;;;;;;;;;;;13.78;68.96;95596.34;5038426;28;20537;-75
2022/10/25 01:53:05;;;;;;;;;;;;;;;13.94;68.82;95608.16;5050463;28;20605;-76
2022/10/25 01:55:33;;;;;;;;;;;;;;;14.11;68.94;95611.94;5028184;28;20021;-76
2022/10/25 01:58:06;;;;;;;;;;;;;;;14.29;68.06;95608.97;5039301;28;20076;-76
2022/10/25 02:00:37;;;;;;;;;;;;;;;14.46;67.76;95608.16;5050591;28;20528;-77
2022/10/25 02:03:05;;;;;;;;;;;;;;;14.67;67.30;95607.53;5050407;28;20123;-76
2022/10/25 02:05:33;;;;;;;;;;;;;;;14.78;67.11;95609.53;5051429;28;20053;-76
2022/10/25 02:07:59;;;;;;;;;;;;;;;14.89;66.90;95609.97;4999555;28;20030;-75
2022/10/25 02:10:31;;;;;;;;;;;;;;;14.97;66.23;95614.53;4949824;29;20016;-75
2022/10/25 02:13:05;;;;;;;;;;;;;;;15.08;66.09;95605.03;4950912;29;20047;-76
2022/10/25 02:15:38;;;;;;;;;;;;;;;15.15;65.72;95614.47;4949036;29;20113;-76
2022/10/25 02:18:06;;;;;;;;;;;;;;;15.15;65.35;95619.81;4951188;28;20779;-76
2022/10/25 02:20:33;;;;;;;;;;;;;;;15.15;65.48;95617.97;4948308;28;20488;-76
2022/10/25 02:22:59;;;;;;;;;;;;;;;15.23;65.44;95622.47;4965298;28;20065;-76
2022/10/25 02:25:25;;;;;;;;;;;;;;;15.31;64.88;95629.72;4964924;28;20046;-75
2022/10/25 02:27:52;;;;;;;;;;;;;;;15.41;65.02;95623.22;4965453;28;20094;-75
2022/10/25 02:30:18;;;;;;;;;;;;;;;15.46;64.71;95625.72;4965196;28;20411;-75
2022/10/25 02:32:44;;;;;;;;;;;;;;;15.52;64.17;95629.78;5022276;28;20021;-76
2022/10/25 02:35:13;;;;;;;;;;;;;;;15.57;64.11;95621.56;5049460;28;20017;-76
2022/10/25 02:37:38;;;;;;;;;;;;;;;15.63;64.01;95618.69;5050390;28;20009;-76
2022/10/25 02:40:04;;;;;;;;;;;;;;;15.71;63.97;95623.22;5050486;28;20013;-77
2022/10/25 02:42:29;;;;;;;;;;;;;;;15.75;64.03;95630.31;5051046;28;20009;-76
2022/10/25 02:44:54;;;;;;;;;;;;;;;15.83;63.92;95624.13;4960503;28;20019;-76
2022/10/25 02:47:19;;;;;;;;;;;;;;;15.89;63.74;95613.97;4949874;28;20140;-75
2022/10/25 02:49:45;;;;;;;;;;;;;;;15.90;64.06;95615.53;4950404;29;20050;-76
2022/10/25 02:52:10;;;;;;;;;;;;;;;15.88;63.99;95625.03;4950013;28;20388;-75
2022/10/25 02:54:36;;;;;;;;;;;;;;;15.91;63.80;95624.38;4950175;29;20011;-75
2022/10/25 02:57:01;;;;;;;;;;;;;;;15.94;64.23;95610.31;4949888;28;20048;-76
2022/10/25 02:59:26;;;;;;;;;;;;;;;16.01;63.92;95621.31;4948804;28;20047;-76
2022/10/25 03:01:51;;;;;;;;;;;;;;;16.04;63.85;95624.13;4948383;28;20023;-76
2022/10/25 03:04:17;;;;;;;;;;;;;;;16.04;63.85;95626.81;4948585;28;20023;-75
2022/10/25 03:06:42;;;;;;;;;;;;;;;16.04;63.69;95631.41;4964570;28;20030;-75
2022/10/25 03:09:07;;;;;;;;;;;;;;;16.07;63.63;95630.72;4949958;28;20581;-75
2022/10/25 03:11:32;;;;;;;;;;;;;;;16.14;63.59;95627.53;4950021;28;20113;-76
2022/10/25 03:13:57;;;;;;;;;;;;;;;16.19;63.61;95622.75;4958202;28;20018;-75
2022/10/25 03:16:23;;;;;;;;;;;;;;;16.24;63.30;95619.88;4930411;28;20012;-76
2022/10/25 03:18:48;;;;;;;;;;;;;;;16.32;63.14;95628.97;4930411;28;20015;-76
2022/10/25 03:21:13;;;;;;;;;;;;;;;16.34;63.18;95624.06;4961440;28;20262;-76
2022/10/25 03:23:38;;;;;;;;;;;;;;;16.39;62.97;95629.25;4930402;28;20514;-76
2022/10/25 03:26:04;;;;;;;;;;;;;;;16.43;62.71;95626.66;4968462;28;20487;-75
2022/10/25 03:28:30;;;;;;;;;;;;;;;16.41;62.84;95629.69;4949679;29;20548;-76
2022/10/25 03:30:56;;;;;;;;;;;;;;;16.36;62.61;95624.53;4949038;28;20011;-75
2022/10/25 03:33:22;;;;;;;;;;;;;;;16.32;62.83;95629.75;4948604;28;20026;-77
2022/10/25 03:35:50;;;;;;;;;;;;;;;16.33;62.68;95634.03;5043251;28;20469;-76
2022/10/25 03:38:16;;;;;;;;;;;;;;;16.35;62.88;95636.38;5050228;28;20014;-76
2022/10/25 03:40:42;;;;;;;;;;;;;;;16.35;62.84;95642.53;5050198;28;20009;-76
2022/10/25 03:43:07;;;;;;;;;;;;;;;16.36;62.62;95644.09;5049883;28;20017;-76
2022/10/25 03:45:32;;;;;;;;;;;;;;;16.38;62.69;95641.09;4959608;28;20024;-76
2022/10/25 03:47:58;;;;;;;;;;;;;;;16.38;62.70;95641.09;4949281;28;20007;-76
2022/10/25 03:50:23;;;;;;;;;;;;;;;16.38;62.58;95636.53;4949304;29;20011;-76
2022/10/25 03:52:49;;;;;;;;;;;;;;;16.40;62.65;95638.88;4955599;28;20030;-76
2022/10/25 03:55:14;;;;;;;;;;;;;;;16.38;62.43;95646.47;4968209;28;20007;-76
2022/10/25 03:57:39;;;;;;;;;;;;;;;16.38;62.42;95651.84;4968585;28;20015;-76
2022/10/25 04:00:05;;;;;;;;;;;;;;;16.33;62.71;95649.34;4968359;28;20011;-76
2022/10/25 04:02:30;;;;;;;;;;;;;;;16.29;62.53;95640.38;4962305;28;20015;-76
2022/10/25 04:04:55;;;;;;;;;;;;;;;16.24;62.60;95646.72;4963639;28;20023;-75
2022/10/25 04:07:21;;;;;;;;;;;;;;;16.13;62.62;95645.56;4949341;28;20015;-76
2022/10/25 04:09:46;;;;;;;;;;;;;;;16.02;63.14;95649.72;4949196;28;20011;-77
2022/10/25 04:12:11;;;;;;;;;;;;;;;15.89;63.39;95648.84;4964006;28;20019;-76
2022/10/25 04:14:36;;;;;;;;;;;;;;;15.77;63.65;95648.78;4983280;28;20405;-77
2022/10/25 04:17:02;;;;;;;;;;;;;;;15.72;63.87;95649.75;5049758;28;20100;-77
2022/10/25 04:19:27;;;;;;;;;;;;;;;15.66;63.99;95651.03;5049771;28;20112;-76
2022/10/25 04:21:52;;;;;;;;;;;;;;;15.57;64.34;95651.03;5048736;28;20017;-77
2022/10/25 04:24:18;;;;;;;;;;;;;;;15.51;64.61;95656.91;5048319;28;20052;-77
2022/10/25 04:26:43;;;;;;;;;;;;;;;15.44;64.29;95656.63;5045328;28;20017;-77
2022/10/25 04:29:09;;;;;;;;;;;;;;;15.33;64.52;95648.94;4954376;28;20384;-76
2022/10/25 04:31:34;;;;;;;;;;;;;;;15.21;64.62;95648.84;4949116;28;20011;-76
2022/10/25 04:33:59;;;;;;;;;;;;;;;15.07;64.64;95648.25;4949137;28;20047;-76
2022/10/25 04:36:27;;;;;;;;;;;;;;;14.93;65.48;95653.78;4948922;28;20011;-77
2022/10/25 04:38:52;;;;;;;;;;;;;;;14.83;65.51;95644.19;4956556;28;20027;-76
2022/10/25 04:41:18;;;;;;;;;;;;;;;14.73;66.65;95649.09;4999959;28;20020;-74
2022/10/25 04:43:43;;;;;;;;;;;;;;;14.74;67.24;95645.31;4984481;28;20020;-72
2022/10/25 04:46:08;;;;;;;;;;;;;;;14.69;67.42;95643.59;5001686;28;20104;-72
2022/10/25 04:48:38;;;;;;;;;;;;;;;14.70;67.47;95641.72;5018845;28;20116;-73
2022/10/25 04:51:04;;;;;;;;;;;;;;;14.68;67.09;95651.94;5051688;28;20014;-76
2022/10/25 04:53:29;;;;;;;;;;;;;;;14.71;67.25;95648.63;5000285;28;20026;-74
2022/10/25 04:56:03;;;;;;;;;;;;;;;14.66;66.71;95657.63;4951507;28;20015;-77
2022/10/25 04:58:29;;;;;;;;;;;;;;;14.60;66.67;95650.06;4941564;28;20019;-77
2022/10/25 05:00:57;;;;;;;;;;;;;;;14.54;66.80;95660.94;4966348;28;20027;-71
2022/10/25 05:03:23;;;;;;;;;;;;;;;14.48;66.75;95661.38;4988709;28;20033;-74
2022/10/25 05:05:48;;;;;;;;;;;;;;;14.42;66.66;95657.28;4953966;28;20365;-75
2022/10/25 05:08:13;;;;;;;;;;;;;;;14.40;66.87;95659.50;4966652;28;20533;-71
2022/10/25 05:10:39;;;;;;;;;;;;;;;14.42;67.12;95662.63;4965413;28;20069;-72
2022/10/25 05:13:04;;;;;;;;;;;;;;;14.42;67.25;95670.66;4963260;28;20018;-76
2022/10/25 05:15:29;;;;;;;;;;;;;;;14.45;67.27;95662.78;4961474;28;20015;-73
2022/10/25 05:17:58;;;;;;;;;;;;;;;14.53;67.24;95667.38;4970187;28;20015;-73
2022/10/25 05:20:23;;;;;;;;;;;;;;;14.58;67.40;95661.06;4965708;28;20498;-74
2022/10/25 05:22:48;;;;;;;;;;;;;;;14.59;67.18;95667.22;4952002;28;20016;-78
2022/10/25 05:25:13;;;;;;;;;;;;;;;14.56;67.24;95657.94;4949602;28;20475;-76
2022/10/25 05:27:38;;;;;;;;;;;;;;;14.59;67.29;95660.00;4986842;28;20024;-75
2022/10/25 05:30:04;;;;;;;;;;;;;;;14.69;67.75;95658.84;4976488;28;20122;-74
2022/10/25 05:32:29;;;;;;;;;;;;;;;14.81;67.53;95664.38;4966450;28;20069;-73
2022/10/25 05:34:55;;;;;;;;;;;;;;;14.97;67.28;95661.97;4942022;28;20020;-72
2022/10/25 05:37:20;;;;;;;;;;;;;;;15.12;67.50;95666.81;4947772;28;20074;-78
2022/10/25 05:39:45;;;;;;;;;;;;;;;15.28;67.13;95667.09;4954482;28;20027;-75
2022/10/25 05:42:10;;;;;;;;;;;;;;;15.40;66.79;95672.56;4951756;29;20085;-78
2022/10/25 05:44:35;;;;;;;;;;;;;;;15.52;66.36;95683.41;4966852;28;20030;-75
2022/10/25 05:47:00;;;;;;;;;;;;;;;15.64;66.32;95685.44;4965738;28;20022;-75
2022/10/25 05:49:26;;;;;;;;;;;;;;;15.72;65.67;95681.16;4950515;28;20121;-71
2022/10/25 05:51:51;;;;;;;;;;;;;;;15.79;65.49;95678.72;4967102;28;20019;-74
2022/10/25 05:54:16;;;;;;;;;;;;;;;15.81;65.29;95682.66;4950518;28;20030;-76
2022/10/25 05:56:42;;;;;;;;;;;;;;;15.86;65.09;95682.47;4950736;28;20538;-75
2022/10/25 05:59:08;;;;;;;;;;;;;;;15.94;64.97;95686.22;4968829;28;20035;-75
2022/10/25 06:01:34;;;;;;;;;;;;;;;16.04;64.61;95682.38;5049594;28;20107;-74
2022/10/25 06:03:59;;;;;;;;;;;;;;;16.17;64.54;95691.28;5049988;28;20065;-75
2022/10/25 06:06:25;;;;;;;;;;;;;;;16.21;63.92;95681.47;4964902;28;20026;-75
2022/10/25 06:08:54;;;;;;;;;;;;;;;16.21;63.72;95693.00;4956451;28;20023;-75
2022/10/25 06:11:19;;;;;;;;;;;;;;;16.19;63.81;95689.09;5051380;28;20010;-74
2022/10/25 06:13:45;;;;;;;;;;;;;;;16.24;63.86;95691.56;5050401;28;20028;-76
2022/10/25 06:16:11;;;;;;;;;;;;;;;16.35;63.84;95701.59;5049611;28;20009;-75
2022/10/25 06:18:40;;;;;;;;;;;;;;;16.45;63.58;95700.41;5050240;28;20096;-75
2022/10/25 06:21:07;;;;;;;;;;;;;;;16.57;63.22;95711.22;4969673;28;20526;-76
2022/10/25 06:23:35;;;;;;;;;;;;;;;16.67;62.81;95709.25;5049987;28;20443;-73
2022/10/25 06:26:08;;;;;;;;;;;;;;;16.68;62.46;95716.19;5049723;28;20060;-75
2022/10/25 06:28:33;;;;;;;;;;;;;;;16.67;62.36;95728.06;5050110;28;20016;-74
2022/10/25 06:31:00;;;;;;;;;;;;;;;16.58;62.26;95731.63;5051022;28;20409;-74
2022/10/25 06:33:25;;;;;;;;;;;;;;;16.47;62.43;95725.03;5043726;28;20060;-75
2022/10/25 06:35:54;;;;;;;;;;;;;;;16.34;62.53;95723.41;5004606;28;20036;-74
2022/10/25 06:38:19;;;;;;;;;;;;;;;16.22;62.92;95726.00;5049640;28;20140;-75
2022/10/25 06:40:45;;;;;;;;;;;;;;;16.11;63.32;95733.63;5050946;28;20518;-75
2022/10/25 06:43:10;;;;;;;;;;;;;;;16.03;63.42;95727.22;5050349;28;20035;-75
2022/10/25 06:45:35;;;;;;;;;;;;;;;15.97;63.46;95731.19;5045569;28;20059;-74
2022/10/25 06:48:00;;;;;;;;;;;;;;;15.94;63.79;95723.78;5048513;28;20013;-74
2022/10/25 06:50:26;;;;;;;;;;;;;;;15.93;63.96;95729.47;5008161;28;20018;-74
2022/10/25 06:52:51;;;;;;;;;;;;;;;15.92;63.87;95728.69;5049028;28;20019;-75
2022/10/25 06:55:16;;;;;;;;;;;;;;;15.98;64.19;95729.31;5050478;28;20075;-74
2022/10/25 06:57:41;;;;;;;;;;;;;;;16.05;63.93;95733.03;5041850;28;20404;-74
2022/10/25 07:00:07;;;;;;;;;;;;;;;16.05;63.93;95730.34;5050816;28;20020;-74
2022/10/25 07:02:32;;;;;;;;;;;;;;;16.07;63.76;95730.84;5049559;28;20028;-74
2022/10/25 07:04:57;;;;;;;;;;;;;;;16.14;63.55;95724.16;5027536;28;20034;-75
2022/10/25 07:07:22;;;;;;;;;;;;;;;16.11;63.59;95723.69;4957385;28;20012;-75
2022/10/25 07:09:48;;;;;;;;;;;;;;;16.21;63.72;95735.16;5049126;28;20018;-75
2022/10/25 07:12:13;;;;;;;;;;;;;;;16.18;63.50;95733.16;5049426;28;20017;-74
2022/10/25 07:14:38;;;;;;;;;;;;;;;16.24;63.52;95738.00;5049266;28;20107;-74
2022/10/25 07:17:03;;;;;;;;;;;;;;;16.33;63.39;95746.00;5050308;28;20016;-75
2022/10/25 07:19:28;;;;;;;;;;;;;;;16.42;63.25;95743.25;5045487;28;20117;-73
2022/10/25 07:21:54;;;;;;;;;;;;;;;16.36;63.09;95754.16;4974258;22;20045;-69
2022/10/25 07:24:19;;;;;;;;;;;;;;;16.52;62.52;95753.59;4987053;28;20076;-68
2022/10/25 07:26:44;;;;;;;;;;;;;;;16.61;62.29;95757.00;4987744;28;20060;-69
2022/10/25 07:29:09;;;;;;;;;;;;;;;16.52;62.57;95765.13;4988153;28;20101;-69
2022/10/25 07:31:36;;;;;;;;;;;;;;;16.35;62.50;95765.25;4986809;28;20015;-68
2022/10/25 07:34:02;;;;;;;;;;;;;;;16.82;61.73;95765.09;4973522;28;20073;-68
2022/10/25 07:36:27;;;;;;;;;;;;;;;17.06;61.27;95757.16;4967526;28;20514;-68
2022/10/25 07:38:52;;;;;;;;;;;;;;;17.29;60.90;95756.78;4983216;28;20105;-68
2022/10/25 07:41:17;;;;;;;;;;;;;;;17.48;60.57;95756.28;4983136;28;20126;-68
2022/10/25 07:43:43;;;;;;;;;;;;;;;17.71;60.33;95754.78;4967175;28;20023;-69
2022/10/25 07:46:08;;;;;;;;;;;;;;;18.01;59.91;95751.91;4968583;28;20019;-69
2022/10/25 07:48:33;;;;;;;;;;;;;;;18.36;58.83;95760.31;4967278;28;20094;-69
2022/10/25 07:51:06;;;;;;;;;;;;;;;18.72;57.28;95753.31;4966738;28;20132;-69
2022/10/25 07:53:31;;;;;;;;;;;;;;;19.03;56.24;95758.06;4967284;28;20019;-69
2022/10/25 07:55:57;;;;;;;;;;;;;;;19.32;55.60;95759.63;4968246;28;20360;-69
2022/10/25 07:58:22;;;;;;;;;;;;;;;19.63;55.25;95765.09;4966543;28;20022;-69
2022/10/25 08:00:47;;;;;;;;;;;;;;;19.87;54.40;95766.88;4966376;28;20113;-70
2022/10/25 08:03:13;;;;;;;;;;;;;;;19.99;53.01;95777.59;4968205;28;20019;-69
2022/10/25 08:05:38;;;;;;;;;;;;;;;20.30;53.09;95776.00;4981863;28;20022;-69
2022/10/25 08:08:04;;;;;;;;;;;;;;;20.56;52.25;95775.47;4966853;28;20126;-69
2022/10/25 08:10:29;;;;;;;;;;;;;;;20.73;51.40;95766.97;4982162;28;20065;-70
2022/10/25 08:12:55;;;;;;;;;;;;;;;20.92;51.00;95762.72;4968118;28;20117;-69
2022/10/25 08:15:20;;;;;;;;;;;;;;;20.73;50.87;95766.97;4967761;28;20015;-69
2022/10/25 08:17:45;;;;;;;;;;;;;;;20.77;50.15;95761.63;4968077;28;20021;-68
2022/10/25 08:20:11;;;;;;;;;;;;;;;20.64;50.52;95763.69;4970840;28;20014;-69
2022/10/25 08:22:36;;;;;;;;;;;;;;;20.68;50.08;95761.84;4969861;28;20566;-68
2022/10/25 08:25:03;;;;;;;;;;;;;;;20.75;49.97;95758.50;4985838;28;20023;-69
2022/10/25 08:27:29;;;;;;;;;;;;;;;19.34;51.88;95763.53;4971161;28;20467;-68
2022/10/25 08:29:54;;;;;;;;;;;;;;;19.79;51.26;95761.63;4971313;28;20018;-69
2022/10/25 08:32:19;;;;;;;;;;;;;;;19.22;52.30;95758.22;4985984;28;20495;-69
2022/10/25 08:34:45;;;;;;;;;;;;;;;19.31;53.08;95756.16;4969985;28;20072;-69
2022/10/25 08:37:10;;;;;;;;;;;;;;;18.43;55.33;95763.22;4969769;28;20539;-69
2022/10/25 08:39:35;;;;;;;;;;;;;;;18.44;54.50;95775.56;4971094;28;20011;-69
2022/10/25 08:42:01;;;;;;;;;;;;;;;17.65;56.65;95764.94;4970961;28;20011;-68
2022/10/25 08:44:31;;;;;;;;;;;;;;;18.29;54.51;95770.88;4970861;28;20027;-68
2022/10/25 08:47:02;;;;;;;;;;;;;;;17.82;56.02;95769.41;4970047;28;20072;-68
2022/10/25 08:49:35;;;;;;;;;;;;;;;18.02;55.95;95772.34;4969897;28;20045;-68
2022/10/25 08:52:02;;;;;;;;;;;;;;;18.28;54.52;95772.00;4970325;28;20018;-67
2022/10/25 08:54:30;;;;;;;;;;;;;;;17.50;56.03;95776.34;4970985;28;20034;-67
2022/10/25 08:57:18;;;;;;;;;;;;;;;18.10;55.33;95766.81;4984946;28;20015;-69
2022/10/25 08:59:45;;;;;;;;;;;;;;;18.22;54.87;95765.25;4980984;28;20022;-69
2022/10/25 09:02:15;;;;;;;;;;;;;;;18.66;54.22;95777.00;4970817;28;20015;-68
2022/10/25 09:04:40;;;;;;;;;;;;;;;17.98;56.45;95764.13;4970566;28;20023;-68
2022/10/25 09:07:23;;;;;;;;;;;;;;;18.36;54.92;95769.16;4967651;28;20019;-70
2022/10/25 09:10:07;;;;;;;;;;;;;;;18.85;53.18;95774.50;4970760;28;20015;-69
2022/10/25 09:12:38;;;;;;;;;;;;;;;19.04;52.92;95768.50;4970895;28;20527;-69
2022/10/25 09:15:06;;;;;;;;;;;;;;;19.07;53.00;95762.41;4970646;28;20144;-71
2022/10/25 09:17:34;;;;;;;;;;;;;;;19.47;52.40;95762.34;4970401;28;20026;-68
2022/10/25 09:20:03;;;;;;;;;;;;;;;19.50;52.17;95758.19;4971074;28;20011;-69
2022/10/25 09:22:29;;;;;;;;;;;;;;;19.12;52.48;95761.41;4968834;28;20077;-70
2022/10/25 09:25:13;;;;;;;;;;;;;;;18.42;54.20;95767.81;4970290;28;20109;-70
2022/10/25 09:27:42;;;;;;;;;;;;;;;19.40;52.04;95762.19;4970143;28;20018;-70
2022/10/25 09:30:09;;;;;;;;;;;;;;;19.09;51.67;95760.19;4970679;28;20016;-72
2022/10/25 09:32:42;;;;;;;;;;;;;;;19.19;52.71;95759.69;4970797;28;20036;-71
2022/10/25 09:35:14;;;;;;;;;;;;;;;19.11;52.82;95763.31;4985305;28;20474;-70
2022/10/25 09:37:43;;;;;;;;;;;;;;;18.56;52.98;95761.28;4968740;28;20019;-72
2022/10/25 09:40:11;;;;;;;;;;;;;;;18.01;51.80;95765.34;4970329;28;20018;-70
2022/10/25 09:42:37;;;;;;;;;;;;;;;18.64;51.57;95763.09;4970202;28;20110;-70
2022/10/25 09:45:13;;;;;;;;;;;;;;;18.54;51.68;95753.56;4968897;28;20022;-70
2022/10/25 09:47:49;;;;;;;;;;;;;;;18.69;51.52;95766.34;4969636;28;20029;-70
2022/10/25 09:50:22;;;;;;;;;;;;;;;19.37;50.24;95762.06;4985701;28;20018;-70
2022/10/25 09:53:00;;;;;;;;;;;;;;;19.55;49.34;95766.03;4965343;28;20019;-70
2022/10/25 09:55:38;;;;;;;;;;;;;;;19.37;50.26;95765.56;4969776;28;20144;-71
2022/10/25 09:58:04;;;;;;;;;;;;;;;19.14;50.27;95772.63;4970209;28;20516;-71
2022/10/25 10:00:35;;;;;;;;;;;;;;;18.91;49.69;95773.16;4970087;28;20011;-69
2022/10/25 10:03:00;;;;;;;;;;;;;;;18.76;50.31;95773.06;4968653;28;20106;-74
2022/10/25 10:05:25;;;;;;;;;;;;;;;18.58;51.09;95776.00;4967571;28;20109;-70
2022/10/25 10:07:51;;;;;;;;;;;;;;;18.44;50.68;95781.75;4984058;28;20019;-70
2022/10/25 10:10:17;;;;;;;;;;;;;;;18.67;50.74;95776.66;4970189;28;20144;-69
2022/10/25 10:12:52;;;;;;;;;;;;;;;18.43;51.38;95774.00;4970289;28;20480;-70
2022/10/25 10:15:23;;;;;;;;;;;;;;;18.22;51.71;95774.13;4968179;28;20019;-70
2022/10/25 10:18:08;;;;;;;;;;;;;;;18.51;51.13;95766.91;4970368;28;20109;-71
2022/10/25 10:20:33;;;;;;;;;;;;;;;18.63;49.84;95767.69;4968728;28;20515;-69
2022/10/25 10:22:58;;;;;;;;;;;;;;;18.51;49.85;95770.38;4968748;28;20070;-69
2022/10/25 10:25:27;;;;;;;;;;;;;;;18.99;48.17;95767.94;4968773;28;20152;-68
2022/10/25 10:27:54;;;;;;;;;;;;;;;19.20;48.71;95763.94;4969568;28;20022;-71
2022/10/25 10:30:24;;;;;;;;;;;;;;;18.74;50.52;95761.88;4970261;28;20018;-69
2022/10/25 10:32:53;;;;;;;;;;;;;;;19.35;49.47;95753.56;4970135;28;20134;-69
2022/10/25 10:35:25;;;;;;;;;;;;;;;19.46;49.20;95768.09;4967527;28;20070;-69
2022/10/25 10:37:53;;;;;;;;;;;;;;;19.41;48.64;95755.66;4967904;28;20369;-71
2022/10/25 10:40:18;;;;;;;;;;;;;;;18.89;49.36;95758.47;4983309;28;20030;-70
2022/10/25 10:42:44;;;;;;;;;;;;;;;18.89;49.69;95755.75;4969826;28;20011;-73
2022/10/25 10:45:12;;;;;;;;;;;;;;;19.35;48.72;95753.56;4984244;28;20072;-69
2022/10/25 10:47:41;;;;;;;;;;;;;;;19.11;50.03;95759.84;4968791;28;20068;-73
2022/10/25 10:50:11;;;;;;;;;;;;;;;19.40;48.90;95750.59;4968202;28;20057;-69
2022/10/25 10:52:44;;;;;;;;;;;;;;;18.82;49.90;95750.94;4968320;28;20019;-71
2022/10/25 10:55:24;;;;;;;;;;;;;;;18.88;49.86;95748.78;4968678;28;20019;-71
2022/10/25 10:57:51;;;;;;;;;;;;;;;18.71;49.81;95752.53;4984049;28;20496;-73
2022/10/25 11:00:21;;;;;;;;;;;;;;;18.57;51.02;95750.16;4968608;28;20509;-72
2022/10/25 11:02:46;;;;;;;;;;;;;;;18.53;50.47;95743.91;4967581;28;20015;-72
2022/10/25 11:05:23;;;;;;;;;;;;;;;19.07;49.96;95743.53;4967479;28;20340;-73
2022/10/25 11:07:56;;;;;;;;;;;;;;;19.29;48.69;95733.34;4966847;28;20521;-73
2022/10/25 11:10:26;;;;;;;;;;;;;;;19.66;46.94;95732.03;4984060;28;20068;-73
2022/10/25 11:13:10;;;;;;;;;;;;;;;19.50;47.17;95739.31;4968449;28;20113;-72
2022/10/25 11:15:50;;;;;;;;;;;;;;;20.22;46.44;95739.16;4968663;28;20018;-72
2022/10/25 11:18:17;;;;;;;;;;;;;;;19.94;45.88;95733.84;4968991;28;20054;-72
2022/10/25 11:20:49;;;;;;;;;;;;;;;19.71;46.80;95728.31;4968162;28;20054;-72
2022/10/25 11:23:14;;;;;;;;;;;;;;;20.45;45.26;95731.97;4967791;28;20109;-71
2022/10/25 11:25:43;;;;;;;;;;;;;;;20.40;45.68;95728.75;4983282;28;20569;-73
2022/10/25 11:28:20;;;;;;;;;;;;;;;19.31;46.83;95723.00;4968844;28;20007;-73
2022/10/25 11:30:45;;;;;;;;;;;;;;;20.07;45.67;95723.75;4983358;28;20475;-72
2022/10/25 11:33:13;;;;;;;;;;;;;;;21.21;44.23;95721.56;4967521;28;20037;-72
2022/10/25 11:35:44;;;;;;;;;;;;;;;20.76;44.23;95719.50;4968475;28;20015;-72
2022/10/25 11:38:24;;;;;;;;;;;;;;;19.89;45.39;95713.31;4968287;28;20072;-72
2022/10/25 11:40:53;;;;;;;;;;;;;;;21.41;43.04;95705.34;4968465;28;20105;-72
2022/10/25 11:43:21;;;;;;;;;;;;;;;21.78;42.01;95706.34;4982850;28;20054;-72
2022/10/25 11:45:54;;;;;;;;;;;;;;;22.31;41.91;95701.00;4968368;28;20011;-73
2022/10/25 11:48:58;;;;;;;;;;;;;;;22.03;40.67;95695.94;4983378;28;20042;-73
2022/10/25 11:51:41;;;;;;;;;;;;;;;20.50;43.41;95701.97;5047745;28;20017;-73
2022/10/25 11:54:13;;;;;;;;;;;;;;;19.93;45.00;95705.28;5034016;28;20405;-72
2022/10/25 11:56:57;;;;;;;;;;;;;;;19.93;44.90;95706.09;5001593;28;20018;-72
2022/10/25 11:59:40;;;;;;;;;;;;;;;19.41;45.90;95703.59;4986961;28;20022;-73
2022/10/25 12:02:19;;;;;;;;;;;;;;;19.72;46.05;95700.94;4968713;28;20027;-72
2022/10/25 12:04:47;;;;;;;;;;;;;;;20.28;45.11;95699.94;4971744;28;20066;-73
2022/10/25 12:07:23;;;;;;;;;;;;;;;20.03;44.83;95698.59;4970717;28;20010;-74
2022/10/25 12:10:07;;;;;;;;;;;;;;;20.33;44.28;95699.66;4986662;28;20018;-74
2022/10/25 12:12:41;;;;;;;;;;;;;;;19.52;46.46;95698.47;4971060;28;20058;-72
2022/10/25 12:15:11;;;;;;;;;;;;;;;19.82;46.14;95696.16;4970115;28;20490;-73
2022/10/25 12:17:36;;;;;;;;;;;;;;;19.16;47.29;95702.97;4971263;28;20015;-73
2022/10/25 12:20:04;;;;;;;;;;;;;;;19.54;47.43;95698.91;4970273;28;20015;-66
2022/10/25 12:22:38;;;;;;;;;;;;;;;19.46;46.51;95700.66;4968065;28;20825;-66
2022/10/25 12:25:06;;;;;;;;;;;;;;;19.62;46.55;95693.38;4970929;28;20109;-66
2022/10/25 12:27:32;;;;;;;;;;;;;;;19.65;46.27;95694.59;4986313;28;20023;-71
2022/10/25 12:30:05;;;;;;;;;;;;;;;19.75;46.11;95696.75;4971573;28;20011;-65
2022/10/25 12:32:30;;;;;;;;;;;;;;;20.12;46.59;95699.97;4969962;28;20068;-66
2022/10/25 12:34:56;;;;;;;;;;;;;;;20.29;44.37;95692.59;4969805;28;20117;-67
2022/10/25 12:37:24;;;;;;;;;;;;;;;20.23;44.91;95690.19;4970846;28;20049;-67
2022/10/25 12:39:51;;;;;;;;;;;;;;;19.95;45.38;95686.81;4986146;28;20026;-66
2022/10/25 12:42:18;;;;;;;;;;;;;;;20.15;44.73;95688.44;4985522;28;20129;-67
2022/10/25 12:45:01;;;;;;;;;;;;;;;20.18;45.39;95685.06;4970341;28;20041;-66
2022/10/25 12:47:30;;;;;;;;;;;;;;;20.08;44.73;95688.28;4970050;28;20101;-66
2022/10/25 12:50:01;;;;;;;;;;;;;;;20.25;45.89;95690.59;4971078;28;20033;-66
2022/10/25 12:52:32;;;;;;;;;;;;;;;20.14;45.20;95692.28;4969437;28;20015;-66
2022/10/25 12:55:08;;;;;;;;;;;;;;;20.00;45.29;95686.56;4969904;28;20011;-66